Time;durP1;ratioP1;P1;durP2;ratioP2;P2;SDS_P1;SDS_P2;PMS_P1;PMS_P2;Temp;Humidity;BMP_temperature;BMP_pressure;BME280_temperature;BME280_humidity;BME280_pressure;Samples;Min_cycle;Max_cycle;Signal;HPM_P1;HPM_P2
2023/07/27 00:00:45;;;;;;;3.15;1.67;;;;;;;19.21;59.32;100819.47;5054112;27;99184;-67
2023/07/27 00:03:11;;;;;;;1.50;1.40;;;;;;;19.30;59.28;100816.13;5052642;27;97496;-67
2023/07/27 00:05:37;;;;;;;1.15;1.10;;;;;;;19.28;59.39;100815.41;5052318;27;96806;-67
2023/07/27 00:08:05;;;;;;;2.10;1.45;;;;;;;19.30;58.95;100818.78;5054071;27;96845;-67
2023/07/27 00:10:32;;;;;;;1.58;1.23;;;;;;;19.21;59.45;100818.59;5051713;27;99046;-67
2023/07/27 00:12:58;;;;;;;3.20;1.20;;;;;;;19.19;60.00;100824.06;5056113;27;99052;-66
2023/07/27 00:15:25;;;;;;;2.08;1.40;;;;;;;19.28;59.71;100819.91;5044397;27;96870;-66
2023/07/27 00:17:51;;;;;;;1.67;1.40;;;;;;;19.22;59.97;100821.19;5052459;27;97510;-66
2023/07/27 00:20:17;;;;;;;2.22;1.55;;;;;;;19.25;59.96;100818.28;5055512;27;98526;-67
2023/07/27 00:22:44;;;;;;;1.27;1.17;;;;;;;19.22;60.05;100818.50;5051117;27;98793;-68
2023/07/27 00:25:11;;;;;;;3.28;1.45;;;;;;;19.26;59.84;100817.31;5062211;27;97154;-67
2023/07/27 00:27:38;;;;;;;1.35;1.15;;;;;;;19.43;59.41;100811.59;5050885;27;96923;-67
2023/07/27 00:30:06;;;;;;;2.10;1.60;;;;;;;19.46;59.30;100814.13;5060949;27;97777;-67
2023/07/27 00:32:33;;;;;;;2.38;1.30;;;;;;;19.34;60.25;100814.97;5055033;27;98840;-67
2023/07/27 00:34:59;;;;;;;1.55;1.20;;;;;;;19.42;59.97;100807.25;5062371;27;96713;-67
2023/07/27 00:37:26;;;;;;;1.50;1.40;;;;;;;19.40;59.47;100811.84;5062518;27;96803;-67
2023/07/27 00:39:52;;;;;;;1.75;1.48;;;;;;;19.18;60.60;100814.31;5058142;27;101213;-67
2023/07/27 00:42:20;;;;;;;2.35;2.15;;;;;;;19.08;61.40;100806.06;5058457;27;99540;-67
2023/07/27 00:44:46;;;;;;;3.25;1.48;;;;;;;19.06;61.47;100808.00;5062766;27;97747;-67
2023/07/27 00:47:13;;;;;;;3.35;1.40;;;;;;;19.08;61.58;100805.22;5058836;27;96961;-67
2023/07/27 00:49:40;;;;;;;2.25;1.33;;;;;;;19.08;61.46;100813.25;5060344;27;98397;-67
2023/07/27 00:52:07;;;;;;;1.42;1.33;;;;;;;18.88;62.45;100817.31;5054983;27;98851;-67
2023/07/27 00:54:34;;;;;;;4.43;1.60;;;;;;;18.89;62.47;100815.50;5049011;27;97948;-67
2023/07/27 00:57:00;;;;;;;1.70;1.55;;;;;;;18.92;62.27;100816.13;5060509;27;96780;-67
2023/07/27 00:59:28;;;;;;;2.50;1.77;;;;;;;18.87;62.41;100812.91;5057298;27;100100;-66
2023/07/27 01:01:55;;;;;;;2.78;1.50;;;;;;;18.95;62.55;100815.06;5057921;27;98819;-66
2023/07/27 01:04:22;;;;;;;1.92;1.58;;;;;;;18.97;61.96;100803.25;5060917;27;97308;-67
2023/07/27 01:06:48;;;;;;;1.63;1.50;;;;;;;18.87;62.89;100806.69;5056803;27;97076;-66
2023/07/27 01:09:15;;;;;;;1.45;1.35;;;;;;;18.89;62.97;100800.28;5066869;27;98902;-66
2023/07/27 01:11:49;;;;;;;1.40;1.30;;;;;;;18.87;62.72;100804.03;5054817;27;99220;-66
2023/07/27 01:14:27;;;;;;;2.10;1.52;;;;;;;18.92;62.59;100805.41;5053878;27;96949;-66
2023/07/27 01:17:02;;;;;;;3.03;1.65;;;;;;;18.71;63.64;100796.16;5058378;27;96985;-67
2023/07/27 01:19:48;;;;;;;1.60;1.20;;;;;;;18.65;63.76;100786.75;5056556;27;99308;-67
2023/07/27 01:22:27;;;;;;;2.38;1.77;;;;;;;18.57;63.85;100788.25;5050296;27;100632;-66
2023/07/27 01:25:07;;;;;;;3.15;1.50;;;;;;;18.63;63.98;100788.69;5046899;27;97559;-67
2023/07/27 01:27:56;;;;;;;3.35;1.73;;;;;;;18.64;63.72;100790.38;5053138;27;98149;-66
2023/07/27 01:30:43;;;;;;;1.88;1.45;;;;;;;18.60;63.67;100786.22;5054813;27;99135;-66
2023/07/27 01:33:12;;;;;;;1.80;1.70;;;;;;;18.50;63.92;100793.13;5056166;27;98092;-66
2023/07/27 01:35:45;;;;;;;2.53;1.80;;;;;;;18.37;64.49;100792.25;5057472;27;97266;-66
2023/07/27 01:38:13;;;;;;;2.17;1.98;;;;;;;18.38;64.35;100796.59;5056940;27;97283;-66
2023/07/27 01:40:41;;;;;;;2.20;1.90;;;;;;;18.38;64.40;100788.56;5055903;27;99143;-66
2023/07/27 01:43:09;;;;;;;3.47;2.10;;;;;;;18.42;64.60;100783.91;5064913;27;100603;-66
2023/07/27 01:45:39;;;;;;;1.98;1.80;;;;;;;18.45;64.30;100781.00;5059113;27;97108;-66
2023/07/27 01:48:06;;;;;;;3.83;2.00;;;;;;;18.49;64.49;100779.84;5061450;27;97199;-66
2023/07/27 01:50:33;;;;;;;3.85;1.70;;;;;;;18.61;63.97;100781.72;5063724;27;101151;-66
2023/07/27 01:53:01;;;;;;;2.17;1.77;;;;;;;18.51;64.41;100780.59;5056850;27;98930;-66
2023/07/27 01:55:29;;;;;;;1.85;1.70;;;;;;;18.55;64.43;100779.44;5054085;27;96827;-66
2023/07/27 01:57:59;;;;;;;2.55;1.75;;;;;;;18.69;64.31;100780.25;5049367;27;96985;-66
2023/07/27 02:00:26;;;;;;;2.20;2.00;;;;;;;18.79;63.87;100769.75;5054555;27;99330;-66
2023/07/27 02:02:55;;;;;;;1.95;1.45;;;;;;;18.56;64.56;100778.50;5052553;27;99220;-65
2023/07/27 02:05:22;;;;;;;3.08;1.88;;;;;;;18.73;64.18;100770.16;5057717;27;99933;-66
2023/07/27 02:07:49;;;;;;;1.98;1.77;;;;;;;18.63;64.07;100769.09;5053371;27;96866;-67
2023/07/27 02:10:18;;;;;;;3.40;1.90;;;;;;;18.68;64.25;100775.84;5057461;27;98900;-66
2023/07/27 02:12:48;;;;;;;3.97;2.20;;;;;;;18.70;64.52;100773.94;5053373;27;99126;-67
2023/07/27 02:15:18;;;;;;;4.55;2.10;;;;;;;18.45;65.81;100776.50;5044090;27;99389;-67
2023/07/27 02:17:48;;;;;;;4.00;1.98;;;;;;;18.62;64.93;100767.38;5052563;27;99933;-66
2023/07/27 02:20:17;;;;;;;2.65;2.20;;;;;;;18.54;65.12;100770.53;5055920;27;98139;-66
2023/07/27 02:22:45;;;;;;;3.45;1.88;;;;;;;18.62;64.56;100781.63;5050248;27;99420;-66
2023/07/27 02:25:12;;;;;;;5.03;1.90;;;;;;;18.49;65.10;100775.34;5048988;27;98472;-66
2023/07/27 02:27:44;;;;;;;2.80;1.88;;;;;;;18.47;65.04;100766.56;5055460;27;96832;-65
2023/07/27 02:30:10;;;;;;;2.22;1.95;;;;;;;18.50;64.85;100785.09;5049247;27;98967;-65
2023/07/27 02:32:37;;;;;;;4.38;1.95;;;;;;;18.23;65.61;100774.44;5056565;27;99072;-65
2023/07/27 02:35:04;;;;;;;2.80;1.90;;;;;;;18.27;65.67;100775.94;5055053;27;96973;-65
2023/07/27 02:37:31;;;;;;;2.00;1.80;;;;;;;18.16;66.20;100781.16;5054205;27;97067;-66
2023/07/27 02:39:58;;;;;;;5.00;2.35;;;;;;;18.14;65.92;100771.50;5051127;27;99131;-67
2023/07/27 02:42:24;;;;;;;2.67;2.22;;;;;;;18.18;66.13;100775.72;5050250;27;98870;-66
2023/07/27 02:44:51;;;;;;;2.80;2.22;;;;;;;18.13;66.13;100769.78;5052094;27;98033;-66
2023/07/27 02:47:17;;;;;;;4.03;2.33;;;;;;;18.34;65.60;100760.34;5047858;27;96828;-66
2023/07/27 02:49:43;;;;;;;3.40;2.28;;;;;;;18.38;65.37;100769.84;5053705;27;99001;-66
2023/07/27 02:52:10;;;;;;;3.50;2.65;;;;;;;18.23;65.79;100768.22;5053927;27;98772;-67
2023/07/27 02:54:38;;;;;;;3.10;2.22;;;;;;;18.16;66.19;100758.91;5049218;27;96808;-66
2023/07/27 02:57:05;;;;;;;5.18;2.20;;;;;;;18.43;64.98;100767.75;5059295;27;97592;-66
2023/07/27 02:59:31;;;;;;;4.85;2.38;;;;;;;18.35;65.19;100769.22;5047047;27;102270;-66
2023/07/27 03:01:58;;;;;;;3.28;2.65;;;;;;;18.24;65.65;100769.94;5057019;27;99173;-65
2023/07/27 03:04:24;;;;;;;3.88;2.30;;;;;;;18.35;65.36;100772.75;5050092;27;96759;-66
2023/07/27 03:06:50;;;;;;;4.38;2.40;;;;;;;18.24;65.63;100768.13;5063927;27;96873;-66
2023/07/27 03:09:17;;;;;;;3.20;2.55;;;;;;;17.99;66.75;100770.69;5049935;27;99335;-65
2023/07/27 03:11:44;;;;;;;6.15;2.90;;;;;;;18.22;65.56;100775.38;5052315;27;98778;-65
2023/07/27 03:14:11;;;;;;;2.55;2.30;;;;;;;18.37;65.54;100781.53;5051010;27;96867;-66
2023/07/27 03:16:37;;;;;;;3.53;2.35;;;;;;;18.26;65.75;100779.56;5047790;27;96921;-66
2023/07/27 03:19:03;;;;;;;2.92;2.63;;;;;;;18.11;66.20;100775.25;5049634;27;101628;-66
2023/07/27 03:21:30;;;;;;;3.00;2.75;;;;;;;18.35;65.44;100772.75;5055538;27;99019;-66
2023/07/27 03:23:56;;;;;;;2.50;2.30;;;;;;;18.23;65.65;100773.56;5055069;27;96772;-66
2023/07/27 03:26:22;;;;;;;5.50;2.50;;;;;;;18.12;66.02;100774.28;5051175;27;96783;-66
2023/07/27 03:28:50;;;;;;;9.20;2.75;;;;;;;18.13;66.17;100769.78;5054040;27;102282;-66
2023/07/27 03:31:19;;;;;;;3.88;2.75;;;;;;;18.15;65.72;100770.53;5061827;27;98747;-66
2023/07/27 03:33:45;;;;;;;5.63;2.75;;;;;;;18.19;66.20;100767.56;5056016;27;97701;-66
2023/07/27 03:36:12;;;;;;;3.05;2.60;;;;;;;18.19;65.99;100772.03;5057992;27;96807;-66
2023/07/27 03:38:38;;;;;;;4.57;2.90;;;;;;;18.15;65.96;100768.72;5051881;27;98983;-66
2023/07/27 03:41:04;;;;;;;2.90;2.60;;;;;;;18.17;65.71;100768.63;5063542;27;99266;-66
2023/07/27 03:43:31;;;;;;;2.70;2.42;;;;;;;18.07;66.36;100767.50;5058840;27;97134;-67
2023/07/27 03:45:58;;;;;;;3.67;2.78;;;;;;;18.13;65.87;100764.44;5065008;27;97032;-67
2023/07/27 03:48:25;;;;;;;5.88;3.20;;;;;;;18.20;65.72;100773.75;5053154;27;99024;-67
2023/07/27 03:50:52;;;;;;;3.25;2.90;;;;;;;18.28;65.23;100766.09;5051859;27;101551;-67
2023/07/27 03:53:18;;;;;;;3.97;2.53;;;;;;;18.14;65.40;100768.81;5051689;27;97175;-67
2023/07/27 03:55:45;;;;;;;3.60;2.78;;;;;;;18.24;65.07;100761.94;5059952;27;97448;-67
2023/07/27 03:58:11;;;;;;;3.33;2.70;;;;;;;18.37;64.65;100767.31;5055759;27;99026;-67
2023/07/27 04:00:38;;;;;;;4.95;2.70;;;;;;;18.47;64.34;100763.88;5056228;27;98074;-67
2023/07/27 04:03:06;;;;;;;4.00;3.10;;;;;;;18.34;63.96;100752.31;5054614;27;96730;-67
2023/07/27 04:05:32;;;;;;;5.13;3.35;;;;;;;18.56;63.72;100752.59;5057435;27;96817;-66
2023/07/27 04:07:58;;;;;;;3.92;3.33;;;;;;;18.75;62.71;100744.16;5059685;27;98988;-67
2023/07/27 04:10:25;;;;;;;3.20;2.70;;;;;;;18.68;62.82;100740.19;5057610;27;98999;-67
2023/07/27 04:12:51;;;;;;;3.35;2.72;;;;;;;18.50;62.84;100750.31;5052602;27;96898;-67
2023/07/27 04:15:21;;;;;;;4.85;2.85;;;;;;;18.66;62.31;100750.13;5049735;27;99747;-67
2023/07/27 04:17:47;;;;;;;2.85;2.55;;;;;;;18.79;62.68;100744.78;5048829;27;99256;-67
2023/07/27 04:20:15;;;;;;;3.08;2.70;;;;;;;18.55;62.86;100750.00;5059311;27;98772;-67
2023/07/27 04:22:42;;;;;;;5.28;3.22;;;;;;;18.98;61.78;100747.91;5055466;27;96921;-67
2023/07/27 04:25:09;;;;;;;3.30;2.72;;;;;;;18.99;61.83;100741.56;5050398;27;97445;-67
2023/07/27 04:27:35;;;;;;;4.15;3.05;;;;;;;18.86;61.69;100744.25;5059338;27;101450;-67
2023/07/27 04:30:02;;;;;;;3.83;3.08;;;;;;;19.07;61.51;100742.75;5052402;27;99272;-67
2023/07/27 04:32:28;;;;;;;4.47;2.80;;;;;;;19.14;60.94;100743.19;5050735;27;97427;-67
2023/07/27 04:34:55;;;;;;;5.15;3.03;;;;;;;18.92;60.87;100743.84;5056974;27;96845;-67
2023/07/27 04:37:22;;;;;;;3.88;2.83;;;;;;;19.19;60.29;100738.34;5060317;27;99536;-66
2023/07/27 04:39:49;;;;;;;3.05;2.45;;;;;;;19.32;59.76;100743.69;5053744;27;98973;-67
2023/07/27 04:42:15;;;;;;;4.00;3.10;;;;;;;19.29;59.29;100738.56;5062101;27;97166;-68
2023/07/27 04:44:41;;;;;;;5.40;3.83;;;;;;;19.31;59.25;100732.09;5049731;27;97000;-66
2023/07/27 04:47:08;;;;;;;6.40;3.33;;;;;;;19.42;58.75;100740.25;5059198;27;99796;-67
2023/07/27 04:49:34;;;;;;;5.53;3.03;;;;;;;19.46;58.77;100735.53;5053109;27;99860;-67
2023/07/27 04:52:01;;;;;;;4.32;3.15;;;;;;;19.54;58.14;100743.03;5050731;27;97115;-67
2023/07/27 04:54:29;;;;;;;5.22;3.53;;;;;;;19.54;58.29;100735.84;5053093;27;97688;-67
2023/07/27 04:56:55;;;;;;;5.25;3.30;;;;;;;19.81;57.27;100741.88;5052900;27;99367;-67
2023/07/27 04:59:21;;;;;;;7.03;2.88;;;;;;;19.92;57.00;100735.69;5054365;27;99035;-66
2023/07/27 05:01:48;;;;;;;5.80;3.65;;;;;;;19.79;57.13;100724.19;5057471;27;96908;-66
2023/07/27 05:04:14;;;;;;;4.97;3.35;;;;;;;19.67;56.90;100731.31;5052268;27;96802;-67
2023/07/27 05:06:41;;;;;;;3.95;2.63;;;;;;;20.18;56.14;100726.56;5058502;27;99029;-67
2023/07/27 05:09:07;;;;;;;8.65;3.50;;;;;;;20.26;55.33;100732.19;5054364;27;98647;-67
2023/07/27 05:11:35;;;;;;;4.20;2.72;;;;;;;20.09;55.95;100732.59;5055660;27;96769;-67
2023/07/27 05:14:01;;;;;;;4.28;3.25;;;;;;;20.09;55.80;100735.28;5057226;27;100660;-67
2023/07/27 05:16:28;;;;;;;4.45;3.20;;;;;;;20.11;55.89;100736.03;5062960;27;98998;-68
2023/07/27 05:18:57;;;;;;;4.00;2.80;;;;;;;20.02;55.74;100734.03;5059874;27;98871;-68
2023/07/27 05:21:24;;;;;;;6.60;4.72;;;;;;;20.09;55.25;100740.66;5055046;27;96897;-66
2023/07/27 05:23:50;;;;;;;7.78;4.57;;;;;;;20.29;54.57;100740.00;5050082;27;96797;-66
2023/07/27 05:26:17;;;;;;;3.28;2.55;;;;;;;20.61;53.97;100744.78;5055695;27;99103;-67
2023/07/27 05:28:45;;;;;;;5.90;2.83;;;;;;;20.68;53.56;100737.94;5053356;27;98825;-67
2023/07/27 05:31:12;;;;;;;5.38;2.78;;;;;;;20.78;53.23;100740.78;5053595;27;97052;-67
2023/07/27 05:33:38;;;;;;;5.20;3.03;;;;;;;20.45;53.74;100736.19;5042954;27;96966;-68
2023/07/27 05:36:05;;;;;;;4.45;2.78;;;;;;;20.61;53.11;100736.75;5048295;27;101447;-68
2023/07/27 05:38:31;;;;;;;4.00;2.80;;;;;;;20.94;52.86;100733.22;5056116;27;98789;-68
2023/07/27 05:41:00;;;;;;;3.72;2.92;;;;;;;20.56;52.67;100730.84;5042982;27;96794;-67
2023/07/27 05:43:27;;;;;;;5.05;2.55;;;;;;;20.99;52.08;100726.53;5049495;27;98303;-67
2023/07/27 05:45:54;;;;;;;3.97;2.63;;;;;;;20.92;52.05;100725.31;5055167;27;102586;-67
2023/07/27 05:48:21;;;;;;;6.25;2.88;;;;;;;21.27;51.45;100718.97;5053247;27;99133;-67
2023/07/27 05:50:47;;;;;;;8.75;5.63;;;;;;;21.41;50.21;100713.34;5047107;27;99922;-67
2023/07/27 05:53:14;;;;;;;7.95;3.70;;;;;;;21.73;50.02;100722.31;5045999;27;96987;-66
2023/07/27 05:55:41;;;;;;;6.70;3.10;;;;;;;21.85;49.46;100718.63;5046358;27;98383;-66
2023/07/27 05:58:07;;;;;;;5.55;3.05;;;;;;;21.80;49.32;100718.13;5052192;27;97692;-66
2023/07/27 06:00:33;;;;;;;5.13;3.10;;;;;;;22.00;48.87;100712.97;5053638;27;96859;-66
2023/07/27 06:03:01;;;;;;;6.88;2.83;;;;;;;21.80;48.84;100715.44;5055939;27;96940;-66
2023/07/27 06:05:27;;;;;;;2.92;2.60;;;;;;;21.79;49.12;100711.06;5055402;27;99045;-66
2023/07/27 06:07:54;;;;;;;5.43;3.03;;;;;;;22.18;48.01;100714.16;5055801;27;97934;-66
2023/07/27 06:10:20;;;;;;;4.43;2.60;;;;;;;22.23;47.80;100717.28;5052083;27;98502;-66
2023/07/27 06:12:47;;;;;;;7.30;3.17;;;;;;;22.30;47.69;100707.72;5047635;27;96891;-65
2023/07/27 06:15:13;;;;;;;4.20;2.95;;;;;;;22.35;47.46;100705.47;5049993;27;98907;-66
2023/07/27 06:17:40;;;;;;;4.43;2.90;;;;;;;22.49;46.94;100707.00;5048242;27;101522;-66
2023/07/27 06:20:09;;;;;;;4.45;2.60;;;;;;;22.19;47.83;100702.38;5044265;27;96858;-65
2023/07/27 06:22:35;;;;;;;5.30;2.45;;;;;;;22.35;47.25;100707.31;5048238;27;98393;-68
2023/07/27 06:25:08;;;;;;;4.55;2.80;;;;;;;22.85;45.75;100700.28;5041813;27;99497;-66
2023/07/27 06:27:34;;;;;;;4.85;3.03;;;;;;;23.19;45.18;100696.31;5039600;27;99445;-66
2023/07/27 06:30:01;;;;;;;7.90;3.20;;;;;;;23.06;45.13;100695.72;5051365;27;97090;-66
2023/07/27 06:32:27;;;;;;;4.43;3.08;;;;;;;23.13;44.96;100698.72;5040848;27;96878;-66
2023/07/27 06:34:54;;;;;;;4.72;2.88;;;;;;;22.90;45.10;100704.31;5045820;27;99284;-66
2023/07/27 06:37:21;;;;;;;3.50;2.58;;;;;;;22.64;45.56;100706.50;5054532;27;98981;-66
2023/07/27 06:39:48;;;;;;;3.55;2.75;;;;;;;22.74;46.39;100703.06;5038090;27;97222;-66
2023/07/27 06:42:14;;;;;;;4.80;3.10;;;;;;;23.08;45.65;100701.81;5049043;27;97052;-66
2023/07/27 06:44:42;;;;;;;8.18;2.60;;;;;;;22.94;45.72;100699.50;5053337;27;98426;-65
2023/07/27 06:47:08;;;;;;;20.73;2.80;;;;;;;23.17;44.94;100701.00;5040482;27;98927;-63
2023/07/27 06:49:34;;;;;;;5.57;3.15;;;;;;;23.20;44.81;100695.34;5045593;27;97337;-64
2023/07/27 06:52:01;;;;;;;9.95;3.38;;;;;;;23.04;44.83;100697.69;5045293;27;97410;-63
2023/07/27 06:54:29;;;;;;;3.92;2.60;;;;;;;23.03;44.42;100698.69;5051354;27;98196;-64
2023/07/27 06:56:55;;;;;;;4.63;2.70;;;;;;;22.78;44.58;100691.88;5049801;27;98086;-63
2023/07/27 06:59:22;;;;;;;3.15;2.30;;;;;;;23.14;44.28;100695.88;5048941;27;97145;-63
2023/07/27 07:01:48;;;;;;;4.30;2.78;;;;;;;23.16;43.73;100699.31;5051449;27;96978;-64
2023/07/27 07:04:14;;;;;;;4.13;2.78;;;;;;;23.40;43.62;100698.97;5049457;27;99185;-63
2023/07/27 07:06:41;;;;;;;4.70;2.67;;;;;;;23.65;43.54;100701.16;5044531;27;100835;-64
2023/07/27 07:09:07;;;;;;;6.68;2.97;;;;;;;23.64;43.22;100706.69;5054588;27;96773;-64
2023/07/27 07:11:36;;;;;;;5.10;2.50;;;;;;;23.50;43.32;100696.34;5048875;27;96886;-63
2023/07/27 07:14:02;;;;;;;6.78;2.70;;;;;;;23.59;43.19;100692.78;5057894;27;99559;-63
2023/07/27 07:16:29;;;;;;;4.25;2.38;;;;;;;23.98;43.04;100689.13;5046514;27;98437;-64
2023/07/27 07:18:56;;;;;;;4.65;2.35;;;;;;;24.13;41.99;100694.97;5055037;27;96977;-64
2023/07/27 07:21:23;;;;;;;4.53;2.50;;;;;;;24.34;41.77;100692.16;5047615;27;97047;-63
2023/07/27 07:23:49;;;;;;;5.35;2.70;;;;;;;24.13;42.63;100687.72;5053752;27;98246;-64
2023/07/27 07:26:16;;;;;;;2.85;2.40;;;;;;;24.87;41.51;100687.06;5052910;27;99927;-72
2023/07/27 07:28:44;;;;;;;4.18;2.55;;;;;;;24.97;41.07;100690.59;5047788;27;97774;-71
2023/07/27 07:31:10;;;;;;;3.72;2.60;;;;;;;24.79;41.46;100676.97;5049662;27;96935;-72
2023/07/27 07:33:37;;;;;;;4.57;2.55;;;;;;;24.88;40.62;100680.63;5052698;27;99119;-72
2023/07/27 07:36:03;;;;;;;5.82;2.95;;;;;;;24.64;41.49;100675.72;5054957;27;101061;-72
2023/07/27 07:38:30;;;;;;;4.53;2.47;;;;;;;24.56;41.25;100678.31;5044616;27;97391;-73
2023/07/27 07:40:56;;;;;;;4.10;2.30;;;;;;;24.77;40.90;100678.97;5046006;27;98041;-72
2023/07/27 07:43:23;;;;;;;4.22;2.50;;;;;;;24.55;41.10;100676.59;5047763;27;98692;-72
2023/07/27 07:45:50;;;;;;;5.47;2.33;;;;;;;24.53;41.46;100670.50;5054678;27;98830;-72
2023/07/27 07:48:17;;;;;;;6.57;2.80;;;;;;;24.55;41.08;100671.19;5055875;27;98896;-72
2023/07/27 07:50:44;;;;;;;3.63;2.58;;;;;;;24.62;41.22;100665.06;5054084;27;97011;-73
2023/07/27 07:53:10;;;;;;;4.38;2.88;;;;;;;24.74;41.06;100673.00;5045708;27;99306;-73
2023/07/27 07:55:38;;;;;;;5.00;2.50;;;;;;;24.82;40.96;100668.56;5049790;27;98793;-72
2023/07/27 07:58:04;;;;;;;4.25;2.55;;;;;;;24.92;41.09;100672.13;5061955;27;97147;-74
2023/07/27 08:00:31;;;;;;;4.28;2.70;;;;;;;24.56;41.32;100675.59;5060906;27;98580;-73
2023/07/27 08:02:59;;;;;;;4.13;2.40;;;;;;;24.52;42.02;100677.75;5042112;27;100148;-73
2023/07/27 08:05:25;;;;;;;4.07;2.45;;;;;;;24.14;42.39;100672.38;5049470;27;99187;-72
2023/07/27 08:07:52;;;;;;;4.13;2.50;;;;;;;24.11;43.04;100676.22;5051731;27;96887;-73
2023/07/27 08:10:19;;;;;;;4.63;2.75;;;;;;;24.37;42.42;100667.53;5050123;27;97031;-72
2023/07/27 08:12:49;;;;;;;4.00;2.60;;;;;;;24.41;42.23;100666.28;5042790;27;98134;-73
2023/07/27 08:15:15;;;;;;;8.27;3.55;;;;;;;24.29;43.13;100676.34;5046782;27;98782;-73
2023/07/27 08:17:42;;;;;;;7.95;2.67;;;;;;;24.33;42.73;100666.13;5043975;27;96865;-72
2023/07/27 08:20:10;;;;;;;4.57;2.40;;;;;;;24.21;43.53;100673.56;5044969;27;97186;-72
2023/07/27 08:22:37;;;;;;;6.22;2.90;;;;;;;23.98;43.74;100675.63;5051770;27;98887;-72
2023/07/27 08:25:05;;;;;;;4.95;2.97;;;;;;;24.05;43.29;100665.97;5053576;27;99100;-73
2023/07/27 08:27:33;;;;;;;4.00;2.75;;;;;;;23.97;43.71;100668.53;5047535;27;98857;-72
2023/07/27 08:29:59;;;;;;;5.32;2.70;;;;;;;24.03;43.94;100667.97;5051293;27;97688;-72
2023/07/27 08:32:26;;;;;;;5.25;2.70;;;;;;;24.38;43.36;100650.34;5052129;27;98325;-72
2023/07/27 08:34:52;;;;;;;3.78;2.55;;;;;;;24.21;43.44;100646.56;5050139;27;99278;-73
2023/07/27 08:37:20;;;;;;;2.42;2.22;;;;;;;24.48;42.89;100649.31;5043293;27;96843;-73
2023/07/27 08:39:48;;;;;;;5.35;2.65;;;;;;;24.39;42.95;100636.72;5051442;27;96964;-72
2023/07/27 08:42:15;;;;;;;4.68;2.50;;;;;;;24.76;42.57;100639.44;5047909;27;99023;-73
2023/07/27 08:44:43;;;;;;;6.18;2.72;;;;;;;24.39;43.00;100633.16;5047597;27;98899;-72
2023/07/27 08:47:10;;;;;;;6.93;2.75;;;;;;;24.25;43.29;100637.16;5050895;27;97119;-72
2023/07/27 08:49:37;;;;;;;4.90;3.00;;;;;;;24.36;43.58;100626.19;5038857;27;98214;-72
2023/07/27 08:52:04;;;;;;;4.28;2.70;;;;;;;24.23;43.45;100621.09;5046950;27;99217;-71
2023/07/27 08:54:32;;;;;;;5.43;3.25;;;;;;;24.30;43.65;100615.97;5050195;27;99420;-73
2023/07/27 08:56:59;;;;;;;4.50;3.03;;;;;;;24.13;43.78;100617.53;5052876;27;99542;-72
2023/07/27 08:59:25;;;;;;;4.97;2.90;;;;;;;24.01;43.95;100615.16;5056316;27;97326;-72
2023/07/27 09:01:52;;;;;;;4.30;2.88;;;;;;;24.35;43.31;100615.53;5050881;27;99262;-72
2023/07/27 09:04:18;;;;;;;4.82;3.00;;;;;;;24.52;42.87;100599.44;5043991;27;99406;-72
2023/07/27 09:06:45;;;;;;;5.72;2.88;;;;;;;24.97;41.53;100594.13;5049012;27;96952;-71
2023/07/27 09:09:13;;;;;;;4.35;2.47;;;;;;;25.22;40.61;100591.72;5050639;27;96792;-72
2023/07/27 09:11:42;;;;;;;4.60;2.47;;;;;;;25.13;41.31;100595.34;5044747;27;98961;-73
2023/07/27 09:14:08;;;;;;;7.30;2.72;;;;;;;25.14;41.12;100595.16;5049342;27;99255;-72
2023/07/27 09:16:36;;;;;;;3.30;2.70;;;;;;;25.04;40.82;100591.69;5051701;27;97232;-72
2023/07/27 09:19:02;;;;;;;4.18;2.90;;;;;;;24.94;41.11;100594.41;5047218;27;98514;-71
2023/07/27 09:21:39;;;;;;;4.18;2.78;;;;;;;24.58;41.47;100597.97;5044934;27;98868;-72
2023/07/27 09:24:09;;;;;;;3.80;2.88;;;;;;;24.80;41.03;100594.06;5042934;27;99487;-72
2023/07/27 09:26:35;;;;;;;4.63;2.95;;;;;;;24.54;41.66;100591.19;5049341;27;97205;-72
2023/07/27 09:29:05;;;;;;;5.18;3.65;;;;;;;24.51;41.17;100584.22;5046356;27;97397;-73
2023/07/27 09:31:32;;;;;;;5.05;3.35;;;;;;;24.31;41.88;100587.13;5046251;27;98877;-75
2023/07/27 09:33:59;;;;;;;4.68;3.17;;;;;;;24.38;42.15;100574.72;5056638;27;98250;-73
2023/07/27 09:36:26;;;;;;;4.18;2.92;;;;;;;24.12;42.54;100572.63;5056451;27;98432;-72
2023/07/27 09:38:53;;;;;;;5.32;3.15;;;;;;;24.07;42.71;100564.13;5043629;27;97587;-71
2023/07/27 09:41:23;;;;;;;5.90;3.40;;;;;;;23.97;43.27;100571.38;5053578;27;99223;-72
2023/07/27 09:43:50;;;;;;;5.40;2.90;;;;;;;23.77;43.57;100575.94;5048056;27;102161;-72
2023/07/27 09:46:22;;;;;;;5.00;3.15;;;;;;;23.90;44.00;100581.03;5050822;27;96991;-72
2023/07/27 09:48:49;;;;;;;6.72;2.85;;;;;;;24.25;43.38;100572.34;5048499;27;97180;-73
2023/07/27 09:51:17;;;;;;;6.18;3.53;;;;;;;24.15;43.15;100566.13;5047490;27;101174;-73
2023/07/27 09:53:44;;;;;;;6.68;3.22;;;;;;;24.34;43.25;100557.13;5053944;27;98916;-72
2023/07/27 09:56:12;;;;;;;6.30;3.00;;;;;;;24.26;43.73;100557.88;5052289;27;97019;-72
2023/07/27 09:58:39;;;;;;;4.40;3.03;;;;;;;24.32;43.54;100559.13;5037746;27;99357;-72
2023/07/27 10:01:05;;;;;;;5.15;3.28;;;;;;;24.11;43.89;100568.22;5044179;27;99101;-72
2023/07/27 10:03:33;;;;;;;3.20;2.90;;;;;;;24.26;43.91;100563.25;5045697;27;98973;-72
2023/07/27 10:06:00;;;;;;;4.22;2.90;;;;;;;24.20;44.29;100562.00;5047801;27;96846;-72
2023/07/27 10:08:27;;;;;;;4.13;2.58;;;;;;;24.31;44.14;100558.28;5048792;27;96880;-73
2023/07/27 10:10:54;;;;;;;4.28;2.63;;;;;;;24.37;43.49;100564.91;5046969;27;99497;-73
2023/07/27 10:13:36;;;;;;;4.00;3.05;;;;;;;24.34;43.63;100554.44;5047661;27;98866;-72
2023/07/27 10:16:02;;;;;;;6.63;2.80;;;;;;;24.44;43.94;100549.84;5044486;27;96988;-73
2023/07/27 10:18:29;;;;;;;6.45;2.85;;;;;;;24.57;44.21;100553.91;5044444;27;97325;-74
2023/07/27 10:21:18;;;;;;;3.03;2.40;;;;;;;24.44;44.25;100542.59;5049448;27;99579;-72
2023/07/27 10:23:53;;;;;;;6.75;3.05;;;;;;;25.03;43.32;100546.72;5043354;27;99912;-71
2023/07/27 10:26:20;;;;;;;6.97;3.15;;;;;;;25.05;43.61;100542.03;5045948;27;97427;-72
2023/07/27 10:28:48;;;;;;;4.47;2.40;;;;;;;25.05;43.57;100543.88;5045317;27;96872;-73
2023/07/27 10:31:17;;;;;;;3.53;2.70;;;;;;;25.26;43.28;100544.44;5045186;27;99936;-73
2023/07/27 10:33:45;;;;;;;3.58;2.25;;;;;;;25.59;42.96;100532.97;5046651;27;98791;-72
2023/07/27 10:36:13;;;;;;;3.75;2.47;;;;;;;25.84;42.06;100533.16;5044571;27;96886;-73
2023/07/27 10:38:39;;;;;;;5.22;2.50;;;;;;;25.84;42.05;100538.56;5048845;27;96829;-71
2023/07/27 10:41:13;;;;;;;4.35;2.53;;;;;;;25.76;41.62;100544.75;5040751;27;99168;-72
2023/07/27 10:44:13;;;;;;;4.88;2.45;;;;;;;25.37;41.47;100547.78;5043247;27;98862;-74
2023/07/27 10:46:39;;;;;;;6.47;2.42;;;;;;;24.98;42.77;100546.34;5044256;27;96908;-73
2023/07/27 10:49:08;;;;;;;3.70;2.67;;;;;;;24.45;44.14;100555.09;5041001;27;97231;-71
2023/07/27 10:51:38;;;;;;;5.78;2.42;;;;;;;24.61;44.66;100554.47;5050675;27;98827;-72
2023/07/27 10:54:05;;;;;;;5.50;2.30;;;;;;;24.86;44.30;100542.13;5049760;27;99230;-72
2023/07/27 10:56:34;;;;;;;6.22;2.30;;;;;;;25.30;43.18;100543.97;5045557;27;97231;-72
2023/07/27 10:59:02;;;;;;;5.63;2.35;;;;;;;25.86;41.98;100547.41;5044053;27;98044;-72
2023/07/27 11:01:29;;;;;;;3.25;2.00;;;;;;;26.01;41.36;100543.09;5041651;27;100296;-72
2023/07/27 11:03:56;;;;;;;5.13;2.40;;;;;;;25.89;41.07;100541.66;5049040;27;99024;-72
2023/07/27 11:06:22;;;;;;;7.22;2.50;;;;;;;25.53;41.21;100541.69;5052956;27;96764;-73
2023/07/27 11:08:50;;;;;;;3.45;2.28;;;;;;;25.53;41.03;100538.13;5045950;27;97145;-71
2023/07/27 11:11:18;;;;;;;7.95;2.70;;;;;;;25.59;41.67;100527.56;5047191;27;98050;-72
2023/07/27 11:13:44;;;;;;;3.15;2.22;;;;;;;25.57;42.26;100532.25;5050288;27;98821;-73
2023/07/27 11:16:11;;;;;;;5.50;2.33;;;;;;;25.76;42.11;100525.81;5046057;27;98506;-72
2023/07/27 11:18:38;;;;;;;5.50;2.35;;;;;;;25.68;42.38;100526.59;5047881;27;97190;-73
2023/07/27 11:21:04;;;;;;;4.32;2.42;;;;;;;25.77;42.37;100522.97;5049585;27;98963;-72
2023/07/27 11:23:31;;;;;;;4.22;2.45;;;;;;;26.01;42.06;100525.00;5043846;27;98899;-72
2023/07/27 11:25:59;;;;;;;4.22;2.25;;;;;;;25.70;42.70;100519.19;5047333;27;98121;-72